Bookmark and Share
Track history (hours):
 

M/T Champion Express

Last reported at 2014-Mar-30 07:33 UTC. Time now 2014-Apr-17 03:58 UTC.
Position N 37°38' W 027°11'.
Warning: this ship's position is 17 days out of date.

Length 191 m; draft 10.1 m.

Type: Ship. MMSI: 636013969.

NotesDate/timePositionNaut miles runAvg speedWind from/ knotsBaromVisibWave heightAir tempDewpointWater temp
2014-Mar-30 07:33N 37°38' W 027°11'9 8.8
2014-Mar-30 06:34N 37°42' W 027°01'9 9.2
2014-Mar-30 05:34N 37°47' W 026°51'9 9.1
2014-Mar-30 04:33N 37°51' W 026°41'8 8.1
2014-Mar-30 03:33N 37°55' W 026°32'8 7.8
2014-Mar-30 02:34N 37°58' W 026°23'9 8.5
2014-Mar-30 01:34N 38°04' W 026°15'9 8.7
2014-Mar-30 00:33N 38°10' W 026°07'8 8.1
2014-Mar-29 23:33N 38°15' W 025°59'9 8.6
2014-Mar-29 22:34N 38°21' W 025°51'9 8.8
2014-Mar-29 21:33N 38°28' W 025°43'9 8.7
2014-Mar-29 20:34N 38°34' W 025°36'8 8.4
2014-Mar-29 19:34N 38°40' W 025°28'8 8.0
2014-Mar-29 18:33N 38°45' W 025°20'  
2014-Mar-22 12:33N 51°17' E 003°50'3 3.1
2014-Mar-22 11:33N 51°20' E 003°49'4 3.6
2014-Mar-22 10:33N 51°22' E 003°45'6 6.4
2014-Mar-22 09:33N 51°26' E 003°36'5 4.7
2014-Mar-22 08:33N 51°25' E 003°29'5 5.0
2014-Mar-22 07:33N 51°24' E 003°21'9 8.8
2014-Mar-22 06:30N 51°24' E 003°06'10 9.6
2014-Mar-22 05:29N 51°25' E 002°51'9 9.4
2014-Mar-22 04:33N 51°22' E 002°38'3 3.1
2014-Mar-22 03:33N 51°24' E 002°34'0 0.0
2014-Mar-22 02:33N 51°24' E 002°34'0 0.1
2014-Mar-22 01:33N 51°24' E 002°34'0 0.2
2014-Mar-22 00:30N 51°24' E 002°34'0 0.0
2014-Mar-21 23:33N 51°24' E 002°34'0 0.0
2014-Mar-21 22:33N 51°24' E 002°34'0 0.1
2014-Mar-21 21:33N 51°24' E 002°34'0 0.2
2014-Mar-21 20:24N 51°24' E 002°34'0 0.1
2014-Mar-21 19:30N 51°24' E 002°34'0 0.0
2014-Mar-21 18:33N 51°24' E 002°34'0 0.0
2014-Mar-21 17:33N 51°24' E 002°34'0 0.0
2014-Mar-21 16:33N 51°24' E 002°34'0 0.1
2014-Mar-21 15:33N 51°24' E 002°34'0 0.1
2014-Mar-21 14:30N 51°24' E 002°34'0 0.0
2014-Mar-21 13:33N 51°24' E 002°34'3 2.9
2014-Mar-21 12:33N 51°22' E 002°31'9 9.1
2014-Mar-21 11:33N 51°19' E 002°18'1110.6
2014-Mar-21 10:33N 51°21' E 002°01'  

Dump ship's entire track history

sailing weather and tide predictions

M/T Champion Express — A8QN4 — position and weather